VBT Airport (Bentonville Muni/Louise M Thaden Field) Information

FAA: VBT - ICAO: KVBT

VBT Airport Location

State Arkansas
County Benton
City Bentonville
VBT Airport is 2 miles south of Bentonville, AR.
Latitude 36-20-42.9000N
Longitude 094-13-09.6100W
Elevation 1,298ft

KVBT Airport METARs

METAR KVBT 301756Z AUTO 07007KT 10SM CLR 19/06 A3011 RMK AO2 SLP198 6//// T01890056 10189 20039 58001
Altimeter 30.11"
Temperature 18.9°C (66.0°F)
Wind 70° at 7KT
Clouds Skies are clear.
Visibility 10.0mi
Time observed: 2021-11-30T17:56:00Z

VBT Airport Details

Status Operational
Activation September 1946
Ownership Public
Usage Public
Chart KANSAS CITY
ATC on-site No
Beacon schedule sunset-sunrise
Beacon color clear green

VBT Airport Contacts

Owner CITY OF BENTONVILLE
Owner address 117 WEST CENTRAL, BENTONVILLE, AR 72712
Owner phone 479-271-3112
Manager DANE PRUITT
Manager address 1100 HILL FARM ROAD, BRYANT, AR 72022
Manager phone (501) 672-9809

VBT Airport (Bentonville Muni/Louise M Thaden Field) Radio Frequencies

VBT (Airport) Radio Frequencies

UNICOM 122.8
Common traffic advisory frequency (CTAF) 122.8